Flight ASX109

  • Submitted By: Rafal Piotrowski
  • Departure Airport: Warszawa Chopina (EPWA)
  • Arrival Airport: Gdansk im. Lecha Walesy (EPGD)
  • Aircraft: D8Q400 (SP-WOD)
  • Flight Time: 01.24.02
  • Date Submitted: 11/11/2016
  • Route: OLILA T270 MEBIV L621 RILAB T270 OSLOG
  • Status: Accepted
Flight Details
Gross Revenue:
(70 load / € 55.00 per unit
€ 3,850.00
Fuel Cost:
(988.378 fuel used @ 0.45 / unit)
€ 444.77

Additional Log Information:

View Log

[17:33] - MJC8Q400_Sioux Air SP-WOD
[17:33] - Flight ASX109 is ready to depart EPWA with a final destination of EPGD.
[17:33] - Parking Brake Applied
[17:33] - Boarding
[17:33] - ADF1 - 284.0
[17:33] - ADF2 - 240.0
[17:33] - NAV1 - 113.70
[17:33] - NAV2 - 110.60
[17:33] - COM1 - 128.30
[17:33] - COM2 - 127.80
[17:33] - Transponder - 1200
[17:35] - Navigation Lights ON 6AGL
[17:36] - Logo Lights ON 6AGL
[17:41] - COM1 - 122.80
[17:41] - Transponder - 2100
[17:42] - Instrument Lights ON 6AGL
[17:42] - Instrument Lights OFF 6AGL
[17:44] - Logo Lights OFF 6AGL
[17:45] - Logo Lights ON 6AGL
[17:51] - Logo Lights OFF 6AGL
[17:52] - Logo Lights ON 6AGL
[17:52] - Logo Lights OFF 6AGL
[17:53] - Logo Lights ON 6AGL
[17:53] - Flaps to position 1
[17:55] - Parking Brake Released
[17:57] - Taxiing to Runway
[18:00] - Landing Lights ON 6AGL
[18:00] - Taking Off with 70 passengers on board
[18:01] - Take off at 134kts, with a pitch of 9deg and 1507kgs of fuel on board
[18:01] - Wind Heading 30 | Wind Speed 8kts | Temperature 0 deg C
[18:01] - METAR Departure: EPWA 111600Z 03008KT 7000 -SN SCT007 BKN016 01/M01 Q1019 TEMPO BKN007

[18:01] - Climbing to TOC
[18:02] - Flaps to position 0 at 2234ft and 159kts
[18:02] - AutoPilot Engaged at 3376AGL
[18:05] - Landing Lights OFF 10846AGL
[18:11] - TOC reached
[18:11] - Cruise started
[18:17] - NAV1 - 110.30
[18:20] - Logo Lights OFF 21743AGL
[18:20] - Instrument Lights ON 21765AGL
[18:20] - Instrument Lights OFF 21752AGL
[18:24] - TOD reached
[18:24] - Descending to destination
[18:33] - Landing Lights ON 9612AGL
[18:34] - Logo Lights ON 9531AGL
[18:40] - Landing Shortly
[18:41] - Flaps to position 1 at 3986ft and 185kts
[18:43] - Flaps to position 2 at 3133ft and 173kts
[18:43] - Flaps to position 1 at 3117ft and 168kts
[18:45] - Flaps to position 3 at 2995ft and 166kts
[18:48] - AutoPilot Disengaged at 416AGL
[18:48] - Landed at -187fpm. With 667kgs of fuel onboard and a pitch angle of 2deg.
[18:48] - Wind Heading 290 | Wind Speed 3kts | Temperature 0 deg C
[18:48] - METAR Arrival: EPGD 111700Z 29003KT 9999 BKN024 M00/M02 Q1022 R11/290195

[18:48] - Taxiing to Gate
[18:49] - Landing Lights OFF 6AGL
[18:49] - Flaps to position 0
[18:53] - Parking Brake Applied
[18:53] - Arrived safely at EPGD. We hope you enjoyed your flight!
[18:54] - Instrument Lights ON 6AGL
[18:54] - Cabin Lights ON 6AGL
[18:57] - MJC8Q400_Sioux Air SP-WOD
[18:57] - MaxSim Rate: 1x
[18:57] - SiouxAcars ver: 1.0.1.2

Route Map